sensor_id;sensor_type;location;lat;lon;timestamp;temperature;humidity
7234;DHT22;3658;47.992;10.158;2023-06-19T00:00:16;22.70;47.70
7234;DHT22;3658;47.992;10.158;2023-06-19T00:02:44;22.70;47.70
7234;DHT22;3658;47.992;10.158;2023-06-19T00:05:12;22.70;47.70
7234;DHT22;3658;47.992;10.158;2023-06-19T00:07:40;22.70;47.70
7234;DHT22;3658;47.992;10.158;2023-06-19T00:10:07;22.70;47.80
7234;DHT22;3658;47.992;10.158;2023-06-19T00:12:33;22.70;47.70
7234;DHT22;3658;47.992;10.158;2023-06-19T00:15:00;22.70;47.70
7234;DHT22;3658;47.992;10.158;2023-06-19T00:17:28;22.70;47.60
7234;DHT22;3658;47.992;10.158;2023-06-19T00:19:56;22.70;47.60
7234;DHT22;3658;47.992;10.158;2023-06-19T00:22:24;22.70;47.60
7234;DHT22;3658;47.992;10.158;2023-06-19T00:24:51;22.70;47.60
7234;DHT22;3658;47.992;10.158;2023-06-19T00:27:18;22.70;47.60
7234;DHT22;3658;47.992;10.158;2023-06-19T00:29:45;22.70;47.60
7234;DHT22;3658;47.992;10.158;2023-06-19T00:32:11;22.70;47.60
7234;DHT22;3658;47.992;10.158;2023-06-19T00:34:38;22.70;47.60
7234;DHT22;3658;47.992;10.158;2023-06-19T00:37:09;22.70;47.60
7234;DHT22;3658;47.992;10.158;2023-06-19T00:39:39;22.70;47.60
7234;DHT22;3658;47.992;10.158;2023-06-19T00:42:06;22.70;47.60
7234;DHT22;3658;47.992;10.158;2023-06-19T00:44:32;22.70;47.60
7234;DHT22;3658;47.992;10.158;2023-06-19T00:47:01;22.70;47.50
7234;DHT22;3658;47.992;10.158;2023-06-19T00:49:30;22.70;47.50
7234;DHT22;3658;47.992;10.158;2023-06-19T00:51:57;22.70;47.50
7234;DHT22;3658;47.992;10.158;2023-06-19T00:54:25;22.70;47.50
7234;DHT22;3658;47.992;10.158;2023-06-19T00:56:52;22.70;47.50
7234;DHT22;3658;47.992;10.158;2023-06-19T00:59:20;22.70;47.50
7234;DHT22;3658;47.992;10.158;2023-06-19T01:01:48;22.70;47.50
7234;DHT22;3658;47.992;10.158;2023-06-19T01:04:14;22.70;47.50
7234;DHT22;3658;47.992;10.158;2023-06-19T01:06:45;22.70;47.50
7234;DHT22;3658;47.992;10.158;2023-06-19T01:09:15;22.70;47.50
7234;DHT22;3658;47.992;10.158;2023-06-19T01:11:48;22.70;47.50
7234;DHT22;3658;47.992;10.158;2023-06-19T01:14:18;22.70;47.50
7234;DHT22;3658;47.992;10.158;2023-06-19T01:16:46;22.70;47.50
7234;DHT22;3658;47.992;10.158;2023-06-19T01:19:17;22.70;47.40
7234;DHT22;3658;47.992;10.158;2023-06-19T01:21:45;22.70;47.50
7234;DHT22;3658;47.992;10.158;2023-06-19T01:24:13;22.70;47.40
7234;DHT22;3658;47.992;10.158;2023-06-19T01:26:40;22.70;47.40
7234;DHT22;3658;47.992;10.158;2023-06-19T01:29:12;22.70;47.40
7234;DHT22;3658;47.992;10.158;2023-06-19T01:31:45;22.70;47.40
7234;DHT22;3658;47.992;10.158;2023-06-19T01:34:14;22.70;47.50
7234;DHT22;3658;47.992;10.158;2023-06-19T01:36:41;22.70;47.40
7234;DHT22;3658;47.992;10.158;2023-06-19T01:39:09;22.70;47.40
7234;DHT22;3658;47.992;10.158;2023-06-19T01:41:38;22.70;47.40
7234;DHT22;3658;47.992;10.158;2023-06-19T01:44:07;22.70;47.40
7234;DHT22;3658;47.992;10.158;2023-06-19T01:46:34;22.70;47.30
7234;DHT22;3658;47.992;10.158;2023-06-19T01:49:01;22.70;47.40
7234;DHT22;3658;47.992;10.158;2023-06-19T01:51:32;22.70;47.40
7234;DHT22;3658;47.992;10.158;2023-06-19T01:53:59;22.70;47.40
7234;DHT22;3658;47.992;10.158;2023-06-19T01:56:26;22.70;47.30
7234;DHT22;3658;47.992;10.158;2023-06-19T01:58:54;22.70;47.30
7234;DHT22;3658;47.992;10.158;2023-06-19T02:01:21;22.70;47.40
7234;DHT22;3658;47.992;10.158;2023-06-19T02:03:48;22.70;47.30
7234;DHT22;3658;47.992;10.158;2023-06-19T02:06:15;22.70;47.40
7234;DHT22;3658;47.992;10.158;2023-06-19T02:08:41;22.70;47.40
7234;DHT22;3658;47.992;10.158;2023-06-19T02:11:08;22.70;47.30
7234;DHT22;3658;47.992;10.158;2023-06-19T02:13:35;22.70;47.30
7234;DHT22;3658;47.992;10.158;2023-06-19T02:16:03;22.70;47.30
7234;DHT22;3658;47.992;10.158;2023-06-19T02:18:30;22.70;47.40
7234;DHT22;3658;47.992;10.158;2023-06-19T02:20:58;22.70;47.40
7234;DHT22;3658;47.992;10.158;2023-06-19T02:23:25;22.70;47.30
7234;DHT22;3658;47.992;10.158;2023-06-19T02:25:54;22.70;47.30
7234;DHT22;3658;47.992;10.158;2023-06-19T02:28:20;22.70;47.30
7234;DHT22;3658;47.992;10.158;2023-06-19T02:30:48;22.70;47.30
7234;DHT22;3658;47.992;10.158;2023-06-19T02:33:16;22.70;47.30
7234;DHT22;3658;47.992;10.158;2023-06-19T02:35:43;22.70;47.30
7234;DHT22;3658;47.992;10.158;2023-06-19T02:38:10;22.80;47.30
7234;DHT22;3658;47.992;10.158;2023-06-19T02:40:37;22.70;47.20
7234;DHT22;3658;47.992;10.158;2023-06-19T02:43:04;22.70;47.20
7234;DHT22;3658;47.992;10.158;2023-06-19T02:45:31;22.70;47.30
7234;DHT22;3658;47.992;10.158;2023-06-19T02:47:58;22.70;47.30
7234;DHT22;3658;47.992;10.158;2023-06-19T02:50:26;22.70;47.30
7234;DHT22;3658;47.992;10.158;2023-06-19T02:52:53;22.70;47.30
7234;DHT22;3658;47.992;10.158;2023-06-19T02:55:19;22.80;47.30
7234;DHT22;3658;47.992;10.158;2023-06-19T02:57:46;22.70;47.20
7234;DHT22;3658;47.992;10.158;2023-06-19T03:00:14;22.70;47.20
7234;DHT22;3658;47.992;10.158;2023-06-19T03:02:41;22.70;47.20
7234;DHT22;3658;47.992;10.158;2023-06-19T03:05:09;22.70;47.20
7234;DHT22;3658;47.992;10.158;2023-06-19T03:07:37;22.70;47.20
7234;DHT22;3658;47.992;10.158;2023-06-19T03:10:05;22.70;47.30
7234;DHT22;3658;47.992;10.158;2023-06-19T03:12:32;22.70;47.20
7234;DHT22;3658;47.992;10.158;2023-06-19T03:14:58;22.80;47.40
7234;DHT22;3658;47.992;10.158;2023-06-19T03:17:25;22.70;47.20
7234;DHT22;3658;47.992;10.158;2023-06-19T03:19:52;22.70;47.20
7234;DHT22;3658;47.992;10.158;2023-06-19T03:22:20;22.70;47.20
7234;DHT22;3658;47.992;10.158;2023-06-19T03:24:48;22.70;47.20
7234;DHT22;3658;47.992;10.158;2023-06-19T03:27:15;22.70;47.20
7234;DHT22;3658;47.992;10.158;2023-06-19T03:29:42;22.70;47.20
7234;DHT22;3658;47.992;10.158;2023-06-19T03:32:08;22.70;47.20
7234;DHT22;3658;47.992;10.158;2023-06-19T03:34:35;22.70;47.20
7234;DHT22;3658;47.992;10.158;2023-06-19T03:37:02;22.70;47.20
7234;DHT22;3658;47.992;10.158;2023-06-19T03:39:30;22.70;47.20
7234;DHT22;3658;47.992;10.158;2023-06-19T03:41:58;22.70;47.20
7234;DHT22;3658;47.992;10.158;2023-06-19T03:44:25;22.70;47.20
7234;DHT22;3658;47.992;10.158;2023-06-19T03:46:51;22.70;47.20
7234;DHT22;3658;47.992;10.158;2023-06-19T03:49:18;22.70;47.20
7234;DHT22;3658;47.992;10.158;2023-06-19T03:51:45;22.70;47.20
7234;DHT22;3658;47.992;10.158;2023-06-19T03:54:12;22.70;47.20
7234;DHT22;3658;47.992;10.158;2023-06-19T03:56:39;22.70;47.20
7234;DHT22;3658;47.992;10.158;2023-06-19T03:59:07;22.70;47.20
7234;DHT22;3658;47.992;10.158;2023-06-19T04:01:33;22.80;47.30
7234;DHT22;3658;47.992;10.158;2023-06-19T04:04:00;22.70;47.20
7234;DHT22;3658;47.992;10.158;2023-06-19T04:06:27;22.70;47.20
7234;DHT22;3658;47.992;10.158;2023-06-19T04:08:54;22.70;47.10
7234;DHT22;3658;47.992;10.158;2023-06-19T04:11:20;22.70;47.20
7234;DHT22;3658;47.992;10.158;2023-06-19T04:13:47;22.70;47.20
7234;DHT22;3658;47.992;10.158;2023-06-19T04:16:15;22.70;47.10
7234;DHT22;3658;47.992;10.158;2023-06-19T04:18:42;22.80;47.30
7234;DHT22;3658;47.992;10.158;2023-06-19T04:21:09;22.80;47.30
7234;DHT22;3658;47.992;10.158;2023-06-19T04:23:36;22.70;47.20
7234;DHT22;3658;47.992;10.158;2023-06-19T04:26:02;22.70;47.20
7234;DHT22;3658;47.992;10.158;2023-06-19T04:28:29;22.80;47.20
7234;DHT22;3658;47.992;10.158;2023-06-19T04:30:56;22.80;47.20
7234;DHT22;3658;47.992;10.158;2023-06-19T04:33:28;22.70;47.20
7234;DHT22;3658;47.992;10.158;2023-06-19T04:35:55;22.80;47.20
7234;DHT22;3658;47.992;10.158;2023-06-19T04:38:22;22.80;47.30
7234;DHT22;3658;47.992;10.158;2023-06-19T04:40:49;22.80;47.20
7234;DHT22;3658;47.992;10.158;2023-06-19T04:43:16;22.80;47.40
7234;DHT22;3658;47.992;10.158;2023-06-19T04:45:44;22.80;49.00
7234;DHT22;3658;47.992;10.158;2023-06-19T04:48:11;22.80;48.90
7234;DHT22;3658;47.992;10.158;2023-06-19T04:50:39;22.80;48.80
7234;DHT22;3658;47.992;10.158;2023-06-19T04:53:05;22.80;48.90
7234;DHT22;3658;47.992;10.158;2023-06-19T04:55:33;22.80;48.90
7234;DHT22;3658;47.992;10.158;2023-06-19T04:57:59;22.80;49.00
7234;DHT22;3658;47.992;10.158;2023-06-19T05:00:26;22.80;49.10
7234;DHT22;3658;47.992;10.158;2023-06-19T05:02:53;22.80;49.20
7234;DHT22;3658;47.992;10.158;2023-06-19T05:05:25;22.80;49.30
7234;DHT22;3658;47.992;10.158;2023-06-19T05:07:53;22.80;49.50
7234;DHT22;3658;47.992;10.158;2023-06-19T05:10:20;22.80;50.30
7234;DHT22;3658;47.992;10.158;2023-06-19T05:12:46;22.80;50.70
7234;DHT22;3658;47.992;10.158;2023-06-19T05:15:13;22.80;50.70
7234;DHT22;3658;47.992;10.158;2023-06-19T05:17:40;22.80;50.80
7234;DHT22;3658;47.992;10.158;2023-06-19T05:20:08;22.80;50.70
7234;DHT22;3658;47.992;10.158;2023-06-19T05:22:35;22.90;50.80
7234;DHT22;3658;47.992;10.158;2023-06-19T05:25:04;22.90;50.90
7234;DHT22;3658;47.992;10.158;2023-06-19T05:27:31;22.90;50.50
7234;DHT22;3658;47.992;10.158;2023-06-19T05:29:58;22.90;50.70
7234;DHT22;3658;47.992;10.158;2023-06-19T05:32:25;22.90;50.60
7234;DHT22;3658;47.992;10.158;2023-06-19T05:34:52;22.90;51.00
7234;DHT22;3658;47.992;10.158;2023-06-19T05:37:19;22.90;51.20
7234;DHT22;3658;47.992;10.158;2023-06-19T05:39:47;22.90;51.20
7234;DHT22;3658;47.992;10.158;2023-06-19T05:42:15;22.90;51.50
7234;DHT22;3658;47.992;10.158;2023-06-19T05:44:42;22.90;51.10
7234;DHT22;3658;47.992;10.158;2023-06-19T05:47:09;22.90;51.20
7234;DHT22;3658;47.992;10.158;2023-06-19T05:49:37;22.90;51.00
7234;DHT22;3658;47.992;10.158;2023-06-19T05:52:07;22.90;50.90
7234;DHT22;3658;47.992;10.158;2023-06-19T05:54:34;22.90;52.30
7234;DHT22;3658;47.992;10.158;2023-06-19T05:57:01;22.90;51.70
7234;DHT22;3658;47.992;10.158;2023-06-19T05:59:29;22.90;51.80
7234;DHT22;3658;47.992;10.158;2023-06-19T06:01:56;22.90;52.20
7234;DHT22;3658;47.992;10.158;2023-06-19T06:04:23;22.90;52.30
7234;DHT22;3658;47.992;10.158;2023-06-19T06:06:49;22.90;52.00
7234;DHT22;3658;47.992;10.158;2023-06-19T06:09:16;22.90;51.80
7234;DHT22;3658;47.992;10.158;2023-06-19T06:11:43;22.90;51.70
7234;DHT22;3658;47.992;10.158;2023-06-19T06:14:10;22.90;51.60
7234;DHT22;3658;47.992;10.158;2023-06-19T06:16:38;22.90;51.60
7234;DHT22;3658;47.992;10.158;2023-06-19T06:19:05;22.90;51.50
7234;DHT22;3658;47.992;10.158;2023-06-19T06:21:32;22.90;51.50
7234;DHT22;3658;47.992;10.158;2023-06-19T06:24:00;22.90;51.40
7234;DHT22;3658;47.992;10.158;2023-06-19T06:26:27;22.90;51.30
7234;DHT22;3658;47.992;10.158;2023-06-19T06:28:54;22.90;51.30
7234;DHT22;3658;47.992;10.158;2023-06-19T06:31:22;22.90;51.20
7234;DHT22;3658;47.992;10.158;2023-06-19T06:33:50;22.90;51.20
7234;DHT22;3658;47.992;10.158;2023-06-19T06:36:17;22.90;51.10
7234;DHT22;3658;47.992;10.158;2023-06-19T06:38:44;22.90;51.10
7234;DHT22;3658;47.992;10.158;2023-06-19T06:41:11;22.90;51.10
7234;DHT22;3658;47.992;10.158;2023-06-19T06:43:39;22.90;51.00
7234;DHT22;3658;47.992;10.158;2023-06-19T06:46:08;22.90;51.00
7234;DHT22;3658;47.992;10.158;2023-06-19T06:48:35;22.90;51.00
7234;DHT22;3658;47.992;10.158;2023-06-19T06:51:03;22.90;50.90
7234;DHT22;3658;47.992;10.158;2023-06-19T06:53:30;22.90;51.40
7234;DHT22;3658;47.992;10.158;2023-06-19T06:55:58;22.90;50.70
7234;DHT22;3658;47.992;10.158;2023-06-19T06:58:26;22.90;50.80
7234;DHT22;3658;47.992;10.158;2023-06-19T07:00:52;22.90;50.70
7234;DHT22;3658;47.992;10.158;2023-06-19T07:03:19;22.90;50.70
7234;DHT22;3658;47.992;10.158;2023-06-19T07:05:47;22.90;50.60
7234;DHT22;3658;47.992;10.158;2023-06-19T07:08:15;22.90;50.60
7234;DHT22;3658;47.992;10.158;2023-06-19T07:10:43;22.90;50.60
7234;DHT22;3658;47.992;10.158;2023-06-19T07:13:09;22.90;50.50
7234;DHT22;3658;47.992;10.158;2023-06-19T07:15:36;22.90;50.50
7234;DHT22;3658;47.992;10.158;2023-06-19T07:18:03;22.90;50.60
7234;DHT22;3658;47.992;10.158;2023-06-19T07:20:30;22.90;51.00
7234;DHT22;3658;47.992;10.158;2023-06-19T07:22:57;22.90;50.50
7234;DHT22;3658;47.992;10.158;2023-06-19T07:25:27;23.00;50.60
7234;DHT22;3658;47.992;10.158;2023-06-19T07:27:53;22.90;50.40
7234;DHT22;3658;47.992;10.158;2023-06-19T07:30:20;22.90;50.40
7234;DHT22;3658;47.992;10.158;2023-06-19T07:32:47;22.90;50.30
7234;DHT22;3658;47.992;10.158;2023-06-19T07:35:14;22.90;50.20
7234;DHT22;3658;47.992;10.158;2023-06-19T07:37:41;23.00;50.30
7234;DHT22;3658;47.992;10.158;2023-06-19T07:40:09;22.90;50.20
7234;DHT22;3658;47.992;10.158;2023-06-19T07:42:37;22.90;50.20
7234;DHT22;3658;47.992;10.158;2023-06-19T07:45:05;22.90;50.20
7234;DHT22;3658;47.992;10.158;2023-06-19T07:47:32;22.90;50.20
7234;DHT22;3658;47.992;10.158;2023-06-19T07:49:59;22.90;50.20
7234;DHT22;3658;47.992;10.158;2023-06-19T07:52:25;22.90;50.10
7234;DHT22;3658;47.992;10.158;2023-06-19T07:54:54;22.90;50.10
7234;DHT22;3658;47.992;10.158;2023-06-19T07:57:21;22.90;50.20
7234;DHT22;3658;47.992;10.158;2023-06-19T07:59:50;23.00;50.20
7234;DHT22;3658;47.992;10.158;2023-06-19T08:02:17;22.90;50.20
7234;DHT22;3658;47.992;10.158;2023-06-19T08:04:45;22.90;50.20
7234;DHT22;3658;47.992;10.158;2023-06-19T08:07:12;22.90;50.10
7234;DHT22;3658;47.992;10.158;2023-06-19T08:09:39;22.90;50.10
7234;DHT22;3658;47.992;10.158;2023-06-19T08:12:06;22.90;50.20
7234;DHT22;3658;47.992;10.158;2023-06-19T08:14:33;22.90;50.20
7234;DHT22;3658;47.992;10.158;2023-06-19T08:17:01;22.90;50.20
7234;DHT22;3658;47.992;10.158;2023-06-19T08:19:27;22.90;50.10
7234;DHT22;3658;47.992;10.158;2023-06-19T08:21:54;22.90;50.00
7234;DHT22;3658;47.992;10.158;2023-06-19T08:24:21;22.90;50.00
7234;DHT22;3658;47.992;10.158;2023-06-19T08:26:48;22.90;50.60
7234;DHT22;3658;47.992;10.158;2023-06-19T08:29:16;22.90;50.00
7234;DHT22;3658;47.992;10.158;2023-06-19T08:31:43;22.90;49.90
7234;DHT22;3658;47.992;10.158;2023-06-19T08:34:12;22.90;49.90
7234;DHT22;3658;47.992;10.158;2023-06-19T08:36:39;22.90;49.90
7234;DHT22;3658;47.992;10.158;2023-06-19T08:39:05;22.90;49.80
7234;DHT22;3658;47.992;10.158;2023-06-19T08:41:34;23.00;50.10
7234;DHT22;3658;47.992;10.158;2023-06-19T08:44:00;22.90;50.10
7234;DHT22;3658;47.992;10.158;2023-06-19T08:46:29;22.90;50.00
7234;DHT22;3658;47.992;10.158;2023-06-19T08:48:56;22.90;50.10
7234;DHT22;3658;47.992;10.158;2023-06-19T08:51:24;22.90;50.00
7234;DHT22;3658;47.992;10.158;2023-06-19T08:53:55;23.00;50.00
7234;DHT22;3658;47.992;10.158;2023-06-19T08:56:22;23.00;50.10
7234;DHT22;3658;47.992;10.158;2023-06-19T08:58:49;23.00;50.00
7234;DHT22;3658;47.992;10.158;2023-06-19T09:01:17;23.00;49.90
7234;DHT22;3658;47.992;10.158;2023-06-19T09:03:44;23.00;49.80
7234;DHT22;3658;47.992;10.158;2023-06-19T09:06:14;23.00;49.70
7234;DHT22;3658;47.992;10.158;2023-06-19T09:08:43;23.00;49.60
7234;DHT22;3658;47.992;10.158;2023-06-19T09:11:11;23.00;49.60
7234;DHT22;3658;47.992;10.158;2023-06-19T09:13:38;23.00;49.50
7234;DHT22;3658;47.992;10.158;2023-06-19T09:16:06;23.00;49.50
7234;DHT22;3658;47.992;10.158;2023-06-19T09:18:43;23.00;49.50
7234;DHT22;3658;47.992;10.158;2023-06-19T09:21:15;23.00;49.40
7234;DHT22;3658;47.992;10.158;2023-06-19T09:23:45;23.00;49.40
7234;DHT22;3658;47.992;10.158;2023-06-19T09:26:14;23.00;49.40
7234;DHT22;3658;47.992;10.158;2023-06-19T09:28:43;23.00;50.10
7234;DHT22;3658;47.992;10.158;2023-06-19T09:31:10;23.00;49.40
7234;DHT22;3658;47.992;10.158;2023-06-19T09:33:39;23.00;49.40
7234;DHT22;3658;47.992;10.158;2023-06-19T09:36:06;23.00;49.50
7234;DHT22;3658;47.992;10.158;2023-06-19T09:38:34;23.00;49.60
7234;DHT22;3658;47.992;10.158;2023-06-19T09:41:04;23.00;49.70
7234;DHT22;3658;47.992;10.158;2023-06-19T09:43:34;23.00;49.70
7234;DHT22;3658;47.992;10.158;2023-06-19T09:46:03;23.00;49.60
7234;DHT22;3658;47.992;10.158;2023-06-19T09:48:31;23.00;49.60
7234;DHT22;3658;47.992;10.158;2023-06-19T09:51:02;23.00;49.60
7234;DHT22;3658;47.992;10.158;2023-06-19T09:53:30;23.00;49.50
7234;DHT22;3658;47.992;10.158;2023-06-19T09:55:58;23.00;49.60
7234;DHT22;3658;47.992;10.158;2023-06-19T09:58:26;23.00;49.50
7234;DHT22;3658;47.992;10.158;2023-06-19T10:00:54;23.00;49.40
7234;DHT22;3658;47.992;10.158;2023-06-19T10:03:30;23.00;49.40
7234;DHT22;3658;47.992;10.158;2023-06-19T10:05:58;23.00;49.40
7234;DHT22;3658;47.992;10.158;2023-06-19T10:08:29;23.10;49.50
7234;DHT22;3658;47.992;10.158;2023-06-19T10:10:56;23.00;49.40
7234;DHT22;3658;47.992;10.158;2023-06-19T10:13:32;23.00;49.40
7234;DHT22;3658;47.992;10.158;2023-06-19T10:16:00;23.00;49.50
7234;DHT22;3658;47.992;10.158;2023-06-19T10:18:27;23.00;49.50
7234;DHT22;3658;47.992;10.158;2023-06-19T10:20:55;23.00;49.50
7234;DHT22;3658;47.992;10.158;2023-06-19T10:23:23;23.00;49.50
7234;DHT22;3658;47.992;10.158;2023-06-19T10:25:56;23.00;49.40
7234;DHT22;3658;47.992;10.158;2023-06-19T10:28:24;23.00;49.40
7234;DHT22;3658;47.992;10.158;2023-06-19T10:30:54;23.00;49.40
7234;DHT22;3658;47.992;10.158;2023-06-19T10:33:21;23.00;49.40
7234;DHT22;3658;47.992;10.158;2023-06-19T10:35:48;23.10;49.40
7234;DHT22;3658;47.992;10.158;2023-06-19T10:38:15;23.10;49.30
7234;DHT22;3658;47.992;10.158;2023-06-19T10:40:43;23.10;49.40
7234;DHT22;3658;47.992;10.158;2023-06-19T10:43:10;23.10;49.40
7234;DHT22;3658;47.992;10.158;2023-06-19T10:45:37;23.10;49.40
7234;DHT22;3658;47.992;10.158;2023-06-19T10:48:06;23.10;49.40
7234;DHT22;3658;47.992;10.158;2023-06-19T10:50:37;23.10;49.40
7234;DHT22;3658;47.992;10.158;2023-06-19T10:53:06;23.10;49.30
7234;DHT22;3658;47.992;10.158;2023-06-19T10:55:34;23.10;49.40
7234;DHT22;3658;47.992;10.158;2023-06-19T10:58:01;23.10;49.30
7234;DHT22;3658;47.992;10.158;2023-06-19T11:00:30;23.10;49.30
7234;DHT22;3658;47.992;10.158;2023-06-19T11:02:57;23.10;49.40
7234;DHT22;3658;47.992;10.158;2023-06-19T11:05:26;23.10;49.40
7234;DHT22;3658;47.992;10.158;2023-06-19T11:07:56;23.10;49.40
7234;DHT22;3658;47.992;10.158;2023-06-19T11:10:24;23.10;49.30
7234;DHT22;3658;47.992;10.158;2023-06-19T11:12:54;23.10;49.30
7234;DHT22;3658;47.992;10.158;2023-06-19T11:15:28;23.10;49.30
7234;DHT22;3658;47.992;10.158;2023-06-19T11:17:54;23.10;49.20
7234;DHT22;3658;47.992;10.158;2023-06-19T11:20:21;23.10;49.30
7234;DHT22;3658;47.992;10.158;2023-06-19T11:22:54;23.10;49.30
7234;DHT22;3658;47.992;10.158;2023-06-19T11:25:22;23.10;49.20
7234;DHT22;3658;47.992;10.158;2023-06-19T11:27:49;23.10;49.30
7234;DHT22;3658;47.992;10.158;2023-06-19T11:30:17;23.10;49.30
7234;DHT22;3658;47.992;10.158;2023-06-19T11:32:46;23.10;49.20
7234;DHT22;3658;47.992;10.158;2023-06-19T11:35:16;23.10;49.20
7234;DHT22;3658;47.992;10.158;2023-06-19T11:37:43;23.10;49.20
7234;DHT22;3658;47.992;10.158;2023-06-19T11:40:11;23.10;49.20
7234;DHT22;3658;47.992;10.158;2023-06-19T11:42:48;23.10;49.20
7234;DHT22;3658;47.992;10.158;2023-06-19T11:45:15;23.10;49.30
7234;DHT22;3658;47.992;10.158;2023-06-19T11:47:44;23.10;49.30
7234;DHT22;3658;47.992;10.158;2023-06-19T11:50:12;23.10;49.30
7234;DHT22;3658;47.992;10.158;2023-06-19T11:52:39;23.10;49.30
7234;DHT22;3658;47.992;10.158;2023-06-19T11:55:06;23.10;49.30
7234;DHT22;3658;47.992;10.158;2023-06-19T11:57:35;23.10;49.20
7234;DHT22;3658;47.992;10.158;2023-06-19T12:00:03;23.10;49.20
7234;DHT22;3658;47.992;10.158;2023-06-19T12:02:33;23.10;49.20
7234;DHT22;3658;47.992;10.158;2023-06-19T12:04:59;23.10;49.30
7234;DHT22;3658;47.992;10.158;2023-06-19T12:07:26;23.10;49.20
7234;DHT22;3658;47.992;10.158;2023-06-19T12:09:53;23.10;49.20
7234;DHT22;3658;47.992;10.158;2023-06-19T12:12:20;23.10;49.20
7234;DHT22;3658;47.992;10.158;2023-06-19T12:14:48;23.10;49.20
7234;DHT22;3658;47.992;10.158;2023-06-19T12:17:15;23.10;49.20
7234;DHT22;3658;47.992;10.158;2023-06-19T12:19:41;23.10;49.20
7234;DHT22;3658;47.992;10.158;2023-06-19T12:22:08;23.10;49.20
7234;DHT22;3658;47.992;10.158;2023-06-19T12:24:35;23.10;49.10
7234;DHT22;3658;47.992;10.158;2023-06-19T12:27:02;23.10;49.20
7234;DHT22;3658;47.992;10.158;2023-06-19T12:29:30;23.10;49.20
7234;DHT22;3658;47.992;10.158;2023-06-19T12:32:01;23.10;49.20
7234;DHT22;3658;47.992;10.158;2023-06-19T12:34:29;23.10;49.20
7234;DHT22;3658;47.992;10.158;2023-06-19T12:36:56;23.10;49.20
7234;DHT22;3658;47.992;10.158;2023-06-19T12:39:23;23.10;49.20
7234;DHT22;3658;47.992;10.158;2023-06-19T12:41:50;23.10;49.10
7234;DHT22;3658;47.992;10.158;2023-06-19T12:44:17;23.10;49.10
7234;DHT22;3658;47.992;10.158;2023-06-19T12:46:44;23.10;49.10
7234;DHT22;3658;47.992;10.158;2023-06-19T12:49:12;23.10;49.10
7234;DHT22;3658;47.992;10.158;2023-06-19T12:51:39;23.10;49.20
7234;DHT22;3658;47.992;10.158;2023-06-19T12:54:06;23.10;49.10
7234;DHT22;3658;47.992;10.158;2023-06-19T12:56:33;23.10;49.20
7234;DHT22;3658;47.992;10.158;2023-06-19T12:59:00;23.10;49.10
7234;DHT22;3658;47.992;10.158;2023-06-19T13:01:26;23.10;49.10
7234;DHT22;3658;47.992;10.158;2023-06-19T13:03:53;23.10;49.10
7234;DHT22;3658;47.992;10.158;2023-06-19T13:06:21;23.10;49.10
7234;DHT22;3658;47.992;10.158;2023-06-19T13:08:48;23.20;49.20
7234;DHT22;3658;47.992;10.158;2023-06-19T13:11:15;23.10;49.10
7234;DHT22;3658;47.992;10.158;2023-06-19T13:13:46;23.10;49.20
7234;DHT22;3658;47.992;10.158;2023-06-19T13:16:13;23.20;49.20
7234;DHT22;3658;47.992;10.158;2023-06-19T13:18:41;23.20;49.20
7234;DHT22;3658;47.992;10.158;2023-06-19T13:21:08;23.10;49.10
7234;DHT22;3658;47.992;10.158;2023-06-19T13:23:36;23.20;49.20
7234;DHT22;3658;47.992;10.158;2023-06-19T13:26:05;23.10;49.10
7234;DHT22;3658;47.992;10.158;2023-06-19T13:28:32;23.10;49.10
7234;DHT22;3658;47.992;10.158;2023-06-19T13:30:59;23.20;49.20
7234;DHT22;3658;47.992;10.158;2023-06-19T13:33:26;23.10;49.10
7234;DHT22;3658;47.992;10.158;2023-06-19T13:35:53;23.20;49.20
7234;DHT22;3658;47.992;10.158;2023-06-19T13:38:20;23.20;49.20
7234;DHT22;3658;47.992;10.158;2023-06-19T13:40:48;23.20;49.20
7234;DHT22;3658;47.992;10.158;2023-06-19T13:43:15;23.20;49.20
7234;DHT22;3658;47.992;10.158;2023-06-19T13:45:42;23.20;49.20
7234;DHT22;3658;47.992;10.158;2023-06-19T13:48:09;23.20;49.20
7234;DHT22;3658;47.992;10.158;2023-06-19T13:50:36;23.20;49.20
7234;DHT22;3658;47.992;10.158;2023-06-19T13:53:02;23.20;49.20
7234;DHT22;3658;47.992;10.158;2023-06-19T13:55:29;23.20;49.10
7234;DHT22;3658;47.992;10.158;2023-06-19T13:57:57;23.20;49.20
7234;DHT22;3658;47.992;10.158;2023-06-19T14:00:24;23.20;49.10
7234;DHT22;3658;47.992;10.158;2023-06-19T14:02:51;23.20;49.20
7234;DHT22;3658;47.992;10.158;2023-06-19T14:05:18;23.20;49.20
7234;DHT22;3658;47.992;10.158;2023-06-19T14:07:45;23.20;49.20
7234;DHT22;3658;47.992;10.158;2023-06-19T14:10:12;23.20;49.10
7234;DHT22;3658;47.992;10.158;2023-06-19T14:12:39;23.20;49.20
7234;DHT22;3658;47.992;10.158;2023-06-19T14:15:08;23.20;49.70
7234;DHT22;3658;47.992;10.158;2023-06-19T14:17:35;23.20;49.10
7234;DHT22;3658;47.992;10.158;2023-06-19T14:20:02;23.20;49.20
7234;DHT22;3658;47.992;10.158;2023-06-19T14:22:30;23.20;49.20
7234;DHT22;3658;47.992;10.158;2023-06-19T14:24:56;23.20;49.10
7234;DHT22;3658;47.992;10.158;2023-06-19T14:27:25;23.20;49.10
7234;DHT22;3658;47.992;10.158;2023-06-19T14:29:52;23.20;49.10
7234;DHT22;3658;47.992;10.158;2023-06-19T14:32:21;23.20;49.10
7234;DHT22;3658;47.992;10.158;2023-06-19T14:34:48;23.20;49.10
7234;DHT22;3658;47.992;10.158;2023-06-19T14:37:15;23.20;49.10
7234;DHT22;3658;47.992;10.158;2023-06-19T14:39:42;23.20;49.10
7234;DHT22;3658;47.992;10.158;2023-06-19T14:42:09;23.20;49.10
7234;DHT22;3658;47.992;10.158;2023-06-19T14:44:36;23.20;49.10
7234;DHT22;3658;47.992;10.158;2023-06-19T14:47:03;23.20;49.10
7234;DHT22;3658;47.992;10.158;2023-06-19T14:49:32;23.20;49.10
7234;DHT22;3658;47.992;10.158;2023-06-19T14:51:58;23.20;49.10
7234;DHT22;3658;47.992;10.158;2023-06-19T14:54:25;23.20;49.10
7234;DHT22;3658;47.992;10.158;2023-06-19T14:56:52;23.20;49.10
7234;DHT22;3658;47.992;10.158;2023-06-19T14:59:19;23.20;49.10
7234;DHT22;3658;47.992;10.158;2023-06-19T15:01:46;23.20;49.10
7234;DHT22;3658;47.992;10.158;2023-06-19T15:04:12;23.20;49.10
7234;DHT22;3658;47.992;10.158;2023-06-19T15:06:41;23.20;49.10
7234;DHT22;3658;47.992;10.158;2023-06-19T15:09:07;23.20;49.10
7234;DHT22;3658;47.992;10.158;2023-06-19T15:11:35;23.20;49.10
7234;DHT22;3658;47.992;10.158;2023-06-19T15:14:01;23.20;49.10
7234;DHT22;3658;47.992;10.158;2023-06-19T15:16:28;23.20;49.10
7234;DHT22;3658;47.992;10.158;2023-06-19T15:18:55;23.20;49.10
7234;DHT22;3658;47.992;10.158;2023-06-19T15:21:22;23.20;49.10
7234;DHT22;3658;47.992;10.158;2023-06-19T15:23:53;23.20;49.00
7234;DHT22;3658;47.992;10.158;2023-06-19T15:26:20;23.20;49.00
7234;DHT22;3658;47.992;10.158;2023-06-19T15:28:47;23.20;49.10
7234;DHT22;3658;47.992;10.158;2023-06-19T15:31:14;23.20;49.10
7234;DHT22;3658;47.992;10.158;2023-06-19T15:33:42;23.20;49.10
7234;DHT22;3658;47.992;10.158;2023-06-19T15:36:08;23.20;49.10
7234;DHT22;3658;47.992;10.158;2023-06-19T15:38:35;23.20;49.10
7234;DHT22;3658;47.992;10.158;2023-06-19T15:41:03;23.20;49.10
7234;DHT22;3658;47.992;10.158;2023-06-19T15:43:30;23.20;49.00
7234;DHT22;3658;47.992;10.158;2023-06-19T15:45:57;23.20;49.10